Time;durP1;ratioP1;P1;durP2;ratioP2;P2;SDS_P1;SDS_P2;PMS_P1;PMS_P2;Temp;Humidity;BMP_temperature;BMP_pressure;BME280_temperature;BME280_humidity;BME280_pressure;Samples;Min_cycle;Max_cycle;Signal;HPM_P1;HPM_P2
2022/10/08 00:04:05;;;;;;;24.40;13.50;;;;;;;13.57;64.27;99462.95;224071;1246;140687;-70
2022/10/08 00:09:08;;;;;;;22.80;13.80;;;;;;;13.51;64.13;99460.52;223530;1254;140748;-67
2022/10/08 00:14:11;;;;;;;21.90;13.80;;;;;;;13.50;64.43;99456.50;223469;1248;140308;-74
2022/10/08 00:19:15;;;;;;;22.50;13.00;;;;;;;13.48;64.60;99452.14;224256;1230;140955;-71
2022/10/08 00:24:20;;;;;;;27.90;14.40;;;;;;;13.48;64.41;99448.61;224143;1244;139804;-70
2022/10/08 00:29:23;;;;;;;21.30;13.70;;;;;;;13.44;64.65;99439.91;223652;1251;139430;-70
2022/10/08 00:34:26;;;;;;;19.40;13.70;;;;;;;13.38;64.32;99433.73;224273;1243;140679;-73
2022/10/08 00:39:29;;;;;;;20.30;13.70;;;;;;;13.29;64.27;99429.89;223577;1254;141324;-70
2022/10/08 00:44:56;;;;;;;21.50;13.40;;;;;;;13.20;64.45;99432.05;224149;1242;142106;-71
2022/10/08 00:50:04;;;;;;;17.60;12.40;;;;;;;13.13;64.58;99423.46;223603;1254;140568;-69
2022/10/08 00:55:08;;;;;;;17.50;12.70;;;;;;;13.13;64.56;99421.85;223640;1251;140012;-69
2022/10/08 01:00:24;;;;;;;20.10;13.50;;;;;;;13.16;64.64;99419.31;223682;1255;140038;-69
2022/10/08 01:05:39;;;;;;;19.10;12.70;;;;;;;13.15;64.76;99413.86;223642;1251;139927;-68
2022/10/08 01:10:57;;;;;;;19.20;12.50;;;;;;;13.14;64.80;99412.32;223681;1250;139798;-68
2022/10/08 01:16:37;;;;;;;20.20;12.80;;;;;;;13.11;64.86;99408.29;223589;1252;139463;-68
2022/10/08 01:21:48;;;;;;;20.80;12.70;;;;;;;13.05;64.89;99404.41;224117;1239;139942;-68
2022/10/08 01:27:19;;;;;;;19.40;12.30;;;;;;;12.97;64.81;99401.55;223590;1254;139516;-64
2022/10/08 01:32:33;;;;;;;20.70;12.30;;;;;;;12.90;65.05;99396.46;223563;1257;140789;-65
2022/10/08 01:37:40;;;;;;;23.20;13.40;;;;;;;12.89;64.78;99390.83;223399;1246;140338;-64
2022/10/08 01:42:44;;;;;;;17.90;12.40;;;;;;;12.90;64.92;99389.38;223523;1255;140420;-64
2022/10/08 01:47:49;;;;;;;17.50;12.80;;;;;;;12.86;65.00;99384.79;224142;1239;139454;-63
2022/10/08 01:52:59;;;;;;;18.40;12.40;;;;;;;12.83;64.90;99386.08;223740;1248;139348;-68
2022/10/08 01:58:07;;;;;;;18.40;13.00;;;;;;;12.76;64.51;99380.27;224280;1246;140512;-67
2022/10/08 02:03:10;;;;;;;18.70;12.90;;;;;;;12.71;64.48;99379.05;224203;1247;139490;-67
2022/10/08 02:08:13;;;;;;;20.00;12.50;;;;;;;12.65;64.56;99379.59;223641;1248;139471;-69
2022/10/08 02:13:16;;;;;;;20.60;12.50;;;;;;;12.60;64.52;99373.55;224135;1247;140456;-68
2022/10/08 02:18:34;;;;;;;15.50;11.70;;;;;;;12.51;64.40;99369.63;223617;1254;139989;-68
2022/10/08 02:23:45;;;;;;;17.50;12.30;;;;;;;12.49;64.68;99363.35;223627;1254;144959;-68
2022/10/08 02:29:00;;;;;;;15.90;11.90;;;;;;;12.51;64.52;99362.88;224347;1243;140819;-69
2022/10/08 02:34:10;;;;;;;22.90;12.40;;;;;;;12.50;64.87;99363.15;223691;1254;140095;-70
2022/10/08 02:39:18;;;;;;;19.80;13.20;;;;;;;12.45;64.61;99365.02;224161;1238;139841;-67
2022/10/08 02:44:35;;;;;;;17.70;12.20;;;;;;;12.40;64.57;99365.94;224274;1254;139529;-69
2022/10/08 02:49:42;;;;;;;17.90;12.50;;;;;;;12.35;64.55;99364.84;224275;1247;139753;-68
2022/10/08 02:54:49;;;;;;;16.90;11.40;;;;;;;12.30;64.63;99366.02;223669;1248;139692;-67
2022/10/08 02:59:52;;;;;;;16.80;12.50;;;;;;;12.26;64.57;99372.13;223684;1247;139239;-65
2022/10/08 03:05:00;;;;;;;28.30;12.60;;;;;;;12.19;64.46;99370.48;224276;1239;140092;-65
2022/10/08 03:10:05;;;;;;;27.90;13.10;;;;;;;12.16;64.63;99368.52;223592;1248;140834;-68
2022/10/08 03:15:12;;;;;;;17.80;12.70;;;;;;;12.16;64.60;99370.46;223467;1247;140222;-69
2022/10/08 03:20:15;;;;;;;21.90;13.40;;;;;;;12.15;64.57;99368.20;223627;1254;139529;-69
2022/10/08 03:25:17;;;;;;;17.10;12.90;;;;;;;12.14;64.61;99366.14;224267;1238;139598;-71
2022/10/08 03:30:20;;;;;;;18.80;13.10;;;;;;;12.10;64.43;99362.32;223715;1254;140027;-68
2022/10/08 03:35:24;;;;;;;18.90;12.90;;;;;;;12.05;64.42;99363.85;223592;1254;139788;-69
2022/10/08 03:40:27;;;;;;;20.80;13.70;;;;;;;12.02;64.57;99363.17;224239;1248;140595;-71
2022/10/08 03:45:30;;;;;;;25.50;13.60;;;;;;;11.98;64.74;99367.33;224146;1247;139973;-70
2022/10/08 03:50:32;;;;;;;26.90;13.40;;;;;;;11.94;64.87;99364.55;223404;1250;141074;-69
2022/10/08 03:55:35;;;;;;;22.10;12.70;;;;;;;11.93;64.54;99363.91;223525;1247;140096;-69
2022/10/08 04:00:39;;;;;;;22.80;12.90;;;;;;;11.93;64.44;99362.85;223557;1254;141132;-68
2022/10/08 04:05:48;;;;;;;22.90;13.00;;;;;;;11.89;64.37;99356.49;223560;1248;139314;-70
2022/10/08 04:10:52;;;;;;;23.20;12.40;;;;;;;11.84;64.63;99354.50;223620;1250;139680;-71
2022/10/08 04:16:00;;;;;;;18.80;12.40;;;;;;;11.79;64.43;99356.19;223502;1251;139995;-69
2022/10/08 04:21:06;;;;;;;22.50;11.50;;;;;;;11.73;64.60;99358.20;223597;1248;140584;-67
2022/10/08 04:26:11;;;;;;;18.40;12.20;;;;;;;11.67;64.34;99358.20;223595;1254;140118;-64
2022/10/08 04:31:20;;;;;;;20.70;12.90;;;;;;;11.59;64.45;99359.19;224188;1241;140949;-65
2022/10/08 04:36:24;;;;;;;15.80;11.70;;;;;;;11.52;64.51;99356.95;223536;1254;140608;-65
2022/10/08 04:41:27;;;;;;;18.20;12.20;;;;;;;11.47;64.49;99360.15;223558;1254;139976;-67
2022/10/08 04:46:30;;;;;;;19.20;12.90;;;;;;;11.47;64.61;99357.45;223541;1254;140109;-62
2022/10/08 04:51:33;;;;;;;22.40;12.70;;;;;;;11.49;64.53;99349.86;223606;1248;139948;-66
2022/10/08 04:56:36;;;;;;;23.70;13.20;;;;;;;11.50;64.69;99346.23;223566;1251;139308;-68
2022/10/08 05:01:39;;;;;;;34.40;26.20;;;;;;;11.55;65.79;99352.86;224168;1244;141479;-70
2022/10/08 05:06:42;;;;;;;27.80;15.60;;;;;;;12.25;66.95;99351.95;223564;1255;140275;-66
2022/10/08 05:11:45;;;;;;;19.30;14.10;;;;;;;12.34;64.56;99344.08;224142;1238;139447;-70
2022/10/08 05:16:48;;;;;;;20.30;13.70;;;;;;;12.10;63.71;99349.13;224264;1246;139680;-68
2022/10/08 05:21:51;;;;;;;21.30;14.00;;;;;;;11.85;63.62;99349.98;223636;1246;139447;-66
2022/10/08 05:26:54;;;;;;;18.00;12.10;;;;;;;11.68;63.77;99356.38;223589;1246;140506;-70
2022/10/08 05:32:02;;;;;;;18.30;13.60;;;;;;;11.54;63.86;99363.79;224153;1247;139399;-70
2022/10/08 05:37:05;;;;;;;26.40;16.20;;;;;;;11.55;64.14;99371.73;223532;1255;140315;-67
2022/10/08 05:42:08;;;;;;;18.70;12.70;;;;;;;11.61;64.39;99375.27;224115;1247;140265;-68
2022/10/08 05:47:11;;;;;;;17.20;13.00;;;;;;;11.62;64.40;99376.45;223650;1251;140586;-68
2022/10/08 05:52:14;;;;;;;20.90;13.70;;;;;;;11.63;64.48;99382.11;224161;1247;139536;-70
2022/10/08 05:57:17;;;;;;;16.70;12.60;;;;;;;11.63;64.84;99388.97;223612;1247;139881;-66
2022/10/08 06:02:21;;;;;;;18.30;12.40;;;;;;;11.64;64.65;99391.11;223604;1247;140774;-67
2022/10/08 06:07:24;;;;;;;22.10;13.10;;;;;;;11.63;65.06;99388.51;224104;1253;140955;-67
2022/10/08 06:12:27;;;;;;;17.10;12.10;;;;;;;11.65;64.99;99393.66;223514;1247;139665;-68
2022/10/08 06:17:31;;;;;;;15.80;11.60;;;;;;;11.73;65.26;99391.02;223543;1248;140147;-68
2022/10/08 06:22:34;;;;;;;44.50;31.60;;;;;;;11.88;65.53;99393.00;223702;1247;140752;-66
2022/10/08 06:27:37;;;;;;;17.90;13.60;;;;;;;12.21;67.05;99393.39;223563;1252;140595;-63
2022/10/08 06:32:40;;;;;;;20.30;12.10;;;;;;;12.76;67.87;99388.27;223664;1254;140690;-63
2022/10/08 06:37:47;;;;;;;17.80;11.50;;;;;;;13.11;66.33;99391.35;224089;1238;140063;-66
2022/10/08 06:42:50;;;;;;;17.80;11.90;;;;;;;13.02;65.60;99392.27;223569;1247;140797;-64
2022/10/08 06:47:53;;;;;;;17.80;11.80;;;;;;;12.98;65.76;99394.71;223529;1254;139422;-63
2022/10/08 06:52:56;;;;;;;63.70;41.70;;;;;;;13.10;67.24;99396.92;223739;1254;140848;-65
2022/10/08 06:58:00;;;;;;;21.70;11.30;;;;;;;13.77;68.29;99394.55;224163;1240;141527;-67
2022/10/08 07:03:03;;;;;;;19.90;11.20;;;;;;;13.90;66.82;99394.47;223530;1253;140078;-68
2022/10/08 07:08:06;;;;;;;23.50;12.00;;;;;;;14.00;66.72;99392.21;223457;1254;141374;-70
2022/10/08 07:13:09;;;;;;;19.90;11.70;;;;;;;14.13;67.04;99391.84;223512;1247;139671;-65
2022/10/08 07:18:12;;;;;;;19.10;12.60;;;;;;;14.30;66.84;99390.45;223576;1256;140393;-68
2022/10/08 07:23:15;;;;;;;21.00;13.40;;;;;;;14.57;68.62;99385.60;224226;1247;139964;-67
2022/10/08 07:28:18;;;;;;;22.70;13.00;;;;;;;15.69;70.48;99371.65;224214;1241;140103;-69
2022/10/08 07:33:21;;;;;;;26.40;11.90;;;;;;;16.31;69.80;99378.94;224153;1247;140988;-69
2022/10/08 07:38:24;;;;;;;26.60;19.10;;;;;;;16.95;68.47;99375.77;223597;1241;140788;-69
2022/10/08 07:43:27;;;;;;;22.70;13.60;;;;;;;16.85;65.74;99370.98;223565;1243;140313;-68
2022/10/08 07:48:30;;;;;;;17.20;11.50;;;;;;;16.64;64.80;99367.15;223476;1254;140548;-65
2022/10/08 07:53:36;;;;;;;18.90;12.20;;;;;;;16.47;64.28;99364.56;224156;1247;139670;-66
2022/10/08 07:58:40;;;;;;;153.10;107.00;;;;;;;16.34;64.35;99362.80;223713;1254;140446;-69
2022/10/08 08:03:44;;;;;;;19.70;13.50;;;;;;;16.27;64.46;99361.58;223598;1251;140075;-65
2022/10/08 08:08:47;;;;;;;17.20;11.10;;;;;;;16.25;64.58;99358.64;223514;1250;139370;-65
2022/10/08 08:13:51;;;;;;;19.20;10.30;;;;;;;16.28;64.61;99358.21;223579;1247;139428;-65
2022/10/08 08:18:56;;;;;;;13.50;10.10;;;;;;;16.38;64.66;99351.92;224181;1247;153114;-64
2022/10/08 08:24:04;;;;;;;;;;;;;;;16.52;65.17;99348.98;223578;1254;140576;-65
2022/10/08 08:29:13;;;;;;;22.40;16.10;;;;;;;16.83;67.01;99345.17;223663;1255;127099;-64
2022/10/08 08:34:23;;;;;;;16.30;9.60;;;;;;;17.17;66.06;99349.13;224155;1247;140444;-64
2022/10/08 08:39:27;;;;;;;18.00;10.60;;;;;;;17.33;65.66;99351.23;223989;1240;139707;-66
2022/10/08 08:44:42;;;;;;;13.60;8.00;;;;;;;17.53;65.01;99353.61;224043;1247;139943;-65
2022/10/08 08:49:51;;;;;;;16.10;9.40;;;;;;;17.62;64.06;99351.09;223336;1254;140168;-63
2022/10/08 08:54:54;;;;;;;13.70;9.10;;;;;;;17.84;64.95;99346.88;223218;1247;140243;-66
2022/10/08 09:00:06;;;;;;;14.70;7.70;;;;;;;18.29;65.48;99339.27;223340;1247;140743;-66
2022/10/08 09:05:16;;;;;;;12.70;6.90;;;;;;;18.65;64.14;99337.45;224296;1253;140272;-65
2022/10/08 09:10:28;;;;;;;;;;;;;;;18.78;63.23;99336.35;224084;1247;140492;-67
2022/10/08 09:15:35;;;;;;;9.10;5.70;;;;;;;18.89;62.20;99334.10;223656;1259;126013;-65
2022/10/08 09:20:39;;;;;;;7.70;4.60;;;;;;;18.97;61.38;99331.53;223585;1247;140658;-67
2022/10/08 09:26:06;;;;;;;11.00;4.50;;;;;;;18.96;60.22;99328.97;223511;1254;139378;-66
2022/10/08 09:31:21;;;;;;;11.00;5.80;;;;;;;18.99;59.80;99320.79;223454;1246;139883;-63
2022/10/08 09:36:30;;;;;;;10.50;5.30;;;;;;;19.00;59.22;99327.15;223577;1248;139498;-65
2022/10/08 09:41:33;;;;;;;9.70;4.90;;;;;;;19.04;59.27;99319.36;223494;1254;140242;-69
2022/10/08 09:46:36;;;;;;;8.00;4.30;;;;;;;19.19;59.80;99317.80;223523;1256;140046;-65
2022/10/08 09:51:41;;;;;;;7.10;4.10;;;;;;;19.27;58.66;99311.11;223524;1254;140420;-69
2022/10/08 09:56:52;;;;;;;9.60;3.90;;;;;;;19.30;58.02;99303.41;223493;1247;139765;-69
2022/10/08 10:01:56;;;;;;;8.20;3.90;;;;;;;19.34;57.62;99297.30;223318;1249;141110;-71
2022/10/08 10:07:00;;;;;;;6.60;3.30;;;;;;;19.41;57.15;99287.69;223416;1260;140505;-67
2022/10/08 10:12:16;;;;;;;6.80;4.00;;;;;;;19.52;57.00;99282.69;223402;1260;140272;-66
2022/10/08 10:17:37;;;;;;;4.70;3.00;;;;;;;19.66;57.01;99276.30;223463;1257;140072;-74
2022/10/08 10:22:48;;;;;;;1.30;1.20;;;;;;;19.87;56.45;99273.22;223595;1254;140674;-66
2022/10/08 10:28:01;;;;;;;5.10;2.90;;;;;;;20.04;55.86;99264.88;223683;1254;139826;-69
2022/10/08 10:33:14;;;;;;;5.40;3.20;;;;;;;20.12;54.91;99260.71;223554;1253;139811;-68
2022/10/08 10:38:26;;;;;;;11.90;8.00;;;;;;;20.20;54.64;99257.89;224122;1247;139627;-71
2022/10/08 10:43:48;;;;;;;7.90;3.90;;;;;;;20.26;54.34;99253.00;224042;1247;139589;-69
2022/10/08 10:48:51;;;;;;;9.20;3.40;;;;;;;20.30;54.01;99247.70;223931;1244;139858;-65
2022/10/08 10:54:15;;;;;;;9.90;3.60;;;;;;;20.34;53.70;99239.27;223590;1254;139731;-64
2022/10/08 10:59:44;;;;;;;6.00;3.10;;;;;;;20.40;53.29;99233.77;224222;1236;140464;-65
2022/10/08 11:05:18;;;;;;;4.30;3.00;;;;;;;20.44;53.07;99230.51;223578;1258;139662;-64
2022/10/08 11:10:47;;;;;;;36.90;25.60;;;;;;;20.44;52.64;99219.64;223486;1254;139247;-67
2022/10/08 11:16:04;;;;;;;8.10;3.90;;;;;;;20.50;52.72;99213.86;224022;1247;139989;-68
2022/10/08 11:21:10;;;;;;;7.50;3.60;;;;;;;20.55;52.37;99209.94;223529;1254;140289;-66
2022/10/08 11:26:36;;;;;;;8.00;3.40;;;;;;;20.59;52.21;99205.17;223451;1254;139121;-67
2022/10/08 11:31:42;;;;;;;5.20;3.30;;;;;;;20.64;51.98;99197.65;223992;1247;140224;-67
2022/10/08 11:37:13;;;;;;;7.20;3.60;;;;;;;20.78;52.14;99188.27;223471;1255;139509;-66
2022/10/08 11:42:27;;;;;;;7.00;3.40;;;;;;;20.96;51.86;99184.98;224036;1244;139608;-64
2022/10/08 11:47:35;;;;;;;7.80;3.70;;;;;;;21.07;51.60;99186.98;224004;1247;140448;-65
2022/10/08 11:52:38;;;;;;;6.60;3.80;;;;;;;21.16;51.51;99187.09;224051;1249;139509;-70
2022/10/08 11:57:41;;;;;;;6.80;3.80;;;;;;;21.26;51.61;99179.58;223932;1253;139570;-67
2022/10/08 12:03:38;;;;;;;8.10;5.70;;;;;;;21.34;51.58;99177.30;223999;1239;139816;-64
2022/10/08 12:09:20;;;;;;;7.70;5.30;;;;;;;21.38;51.43;99169.78;223362;1251;140210;-64
2022/10/08 12:14:23;;;;;;;6.90;3.90;;;;;;;21.40;51.33;99158.95;223458;1261;140367;-65
2022/10/08 12:19:31;;;;;;;8.10;4.00;;;;;;;21.41;51.18;99152.36;223565;1257;139810;-64
2022/10/08 12:24:37;;;;;;;8.00;4.00;;;;;;;21.43;51.32;99145.69;223581;1254;139576;-66
2022/10/08 12:30:02;;;;;;;4.90;3.80;;;;;;;21.47;51.17;99144.93;223568;1253;139994;-62
2022/10/08 12:35:24;;;;;;;7.00;4.00;;;;;;;21.50;51.10;99145.70;224190;1247;139993;-64
2022/10/08 12:40:42;;;;;;;5.30;3.50;;;;;;;21.53;50.94;99142.08;224113;1244;139625;-72
2022/10/08 12:45:54;;;;;;;4.10;3.70;;;;;;;21.55;50.74;99136.55;223516;1256;139671;-63
2022/10/08 12:51:28;;;;;;;6.70;3.90;;;;;;;21.58;50.61;99141.35;223425;1246;140261;-63
2022/10/08 12:56:31;;;;;;;4.60;3.50;;;;;;;21.70;50.47;99134.13;223546;1254;139409;-63
2022/10/08 13:01:35;;;;;;;6.40;4.00;;;;;;;21.83;50.43;99135.96;223516;1260;139377;-63
2022/10/08 13:06:38;;;;;;;7.40;5.40;;;;;;;22.00;50.23;99131.49;223532;1254;139263;-68
2022/10/08 13:11:41;;;;;;;8.90;4.70;;;;;;;22.14;50.02;99127.79;224097;1244;139345;-63
2022/10/08 13:16:46;;;;;;;8.10;4.80;;;;;;;22.25;49.88;99123.51;223635;1254;139377;-63
2022/10/08 13:21:57;;;;;;;6.30;5.00;;;;;;;22.31;49.66;99119.45;223486;1254;139347;-63
2022/10/08 13:27:00;;;;;;;6.00;4.50;;;;;;;22.28;49.57;99119.25;224072;1247;139958;-63
2022/10/08 13:32:17;;;;;;;6.70;4.90;;;;;;;22.21;49.44;99118.75;223563;1251;140209;-63
2022/10/08 13:37:20;;;;;;;10.80;5.50;;;;;;;22.12;49.57;99118.82;224114;1247;139493;-62
2022/10/08 13:42:27;;;;;;;8.30;5.50;;;;;;;22.03;49.74;99118.91;224060;1247;139839;-62
2022/10/08 13:47:30;;;;;;;7.80;5.00;;;;;;;21.96;49.77;99113.30;223412;1250;139792;-62
2022/10/08 13:52:33;;;;;;;7.10;4.90;;;;;;;21.91;49.78;99114.54;224045;1251;139594;-63
2022/10/08 13:57:37;;;;;;;7.80;4.80;;;;;;;21.89;49.99;99111.52;223348;1254;139955;-62
2022/10/08 14:02:39;;;;;;;8.80;5.50;;;;;;;21.84;50.19;99109.72;223350;1248;139866;-66
2022/10/08 14:07:45;;;;;;;34.70;24.50;;;;;;;21.78;50.19;99105.64;223494;1254;140215;-62
2022/10/08 14:12:48;;;;;;;10.90;5.40;;;;;;;21.74;50.36;99109.83;223409;1254;139890;-63
2022/10/08 14:17:52;;;;;;;9.90;5.60;;;;;;;21.71;50.46;99103.82;223386;1254;140112;-62
2022/10/08 14:22:55;;;;;;;8.90;5.60;;;;;;;21.65;50.60;99105.19;223504;1257;140285;-65
2022/10/08 14:27:58;;;;;;;12.40;6.20;;;;;;;21.59;50.84;99103.38;223366;1256;139651;-63
2022/10/08 14:33:01;;;;;;;9.70;5.90;;;;;;;21.52;50.99;99102.51;223933;1245;139970;-62
2022/10/08 14:38:09;;;;;;;11.80;6.20;;;;;;;21.47;51.11;99102.28;224138;1247;140575;-63
2022/10/08 14:43:12;;;;;;;11.30;6.20;;;;;;;21.42;51.28;99104.23;223476;1255;140790;-63
2022/10/08 14:48:15;;;;;;;8.30;5.80;;;;;;;21.37;51.40;99105.48;223953;1247;139310;-65
2022/10/08 14:53:18;;;;;;;10.00;6.50;;;;;;;21.32;51.55;99102.83;223431;1257;139472;-66
2022/10/08 14:58:21;;;;;;;9.60;6.30;;;;;;;21.25;51.65;99103.30;223262;1257;139827;-64
2022/10/08 15:03:24;;;;;;;15.10;7.10;;;;;;;21.21;52.02;99103.78;223422;1254;139978;-63
2022/10/08 15:08:28;;;;;;;8.90;6.40;;;;;;;21.13;52.19;99102.83;223997;1247;239230;-65
2022/10/08 15:13:31;;;;;;;10.00;6.90;;;;;;;21.05;52.44;99105.83;223504;1251;140059;-64
2022/10/08 15:18:34;;;;;;;10.10;7.60;;;;;;;20.99;52.72;99113.82;223437;1256;140136;-63
2022/10/08 15:23:37;;;;;;;10.80;7.40;;;;;;;20.92;52.95;99122.13;223525;1257;141076;-64
2022/10/08 15:28:42;;;;;;;9.50;7.50;;;;;;;20.85;53.15;99122.28;223519;1250;141504;-63
2022/10/08 15:33:47;;;;;;;10.40;7.80;;;;;;;20.79;53.43;99122.58;223435;1257;139049;-67
2022/10/08 15:39:16;;;;;;;;;;;;;;;20.69;53.67;99131.55;223522;1241;139840;-65
2022/10/08 15:44:24;;;;;;;11.40;7.00;;;;;;;20.59;53.80;99142.00;223563;1257;127479;-67
2022/10/08 15:49:35;;;;;;;9.30;7.10;;;;;;;20.50;54.23;99146.98;223594;1256;139493;-69
2022/10/08 15:54:40;;;;;;;10.80;7.90;;;;;;;20.42;54.32;99150.34;223497;1255;140210;-69
2022/10/08 15:59:43;;;;;;;10.60;7.00;;;;;;;20.34;54.48;99153.30;224212;1251;140508;-69
2022/10/08 16:04:46;;;;;;;8.70;7.00;;;;;;;20.27;54.76;99159.15;224152;1237;140553;-70
2022/10/08 16:09:49;;;;;;;12.50;7.80;;;;;;;20.23;54.84;99163.60;223506;1247;140410;-69
2022/10/08 16:14:52;;;;;;;13.30;7.40;;;;;;;20.19;55.02;99168.33;223464;1254;140032;-71
2022/10/08 16:19:56;;;;;;;11.60;7.70;;;;;;;20.14;55.22;99169.18;223506;1252;139648;-65
2022/10/08 16:24:59;;;;;;;11.10;7.30;;;;;;;20.05;55.33;99176.27;223476;1248;139746;-68
2022/10/08 16:30:02;;;;;;;11.90;7.70;;;;;;;19.97;55.42;99178.90;223999;1243;140111;-68
2022/10/08 16:35:06;;;;;;;16.50;8.20;;;;;;;19.89;55.61;99182.83;223642;1254;139968;-68
2022/10/08 16:40:09;;;;;;;17.00;9.50;;;;;;;19.83;55.82;99186.30;223576;1254;140519;-65
2022/10/08 16:45:12;;;;;;;11.50;8.50;;;;;;;19.77;56.00;99186.52;223603;1254;140972;-63
2022/10/08 16:50:18;;;;;;;16.80;9.00;;;;;;;19.72;56.10;99192.77;223592;1254;139908;-65
2022/10/08 16:55:21;;;;;;;13.10;8.30;;;;;;;19.69;56.25;99198.11;223647;1254;139576;-66
2022/10/08 17:00:24;;;;;;;22.70;9.60;;;;;;;19.65;56.24;99200.27;223435;1255;140230;-66
2022/10/08 17:05:28;;;;;;;13.90;9.10;;;;;;;19.59;56.45;99204.06;223741;1250;140104;-66
2022/10/08 17:10:31;;;;;;;19.90;9.40;;;;;;;19.55;56.40;99211.06;223581;1251;139523;-66
2022/10/08 17:15:35;;;;;;;13.10;9.00;;;;;;;19.52;56.68;99207.27;223623;1247;140106;-66
2022/10/08 17:20:40;;;;;;;13.70;8.70;;;;;;;19.47;56.67;99216.54;223565;1253;139802;-64
2022/10/08 17:25:42;;;;;;;15.80;9.10;;;;;;;19.38;56.79;99217.92;224122;1247;140515;-64
2022/10/08 17:30:45;;;;;;;15.40;8.90;;;;;;;19.35;57.02;99219.89;224097;1247;139694;-67
2022/10/08 17:35:57;;;;;;;12.50;8.70;;;;;;;19.33;57.08;99225.08;224138;1239;139644;-68
2022/10/08 17:41:12;;;;;;;12.10;8.70;;;;;;;19.30;57.18;99232.56;224296;1244;139308;-64
2022/10/08 17:46:27;;;;;;;13.10;7.90;;;;;;;19.25;57.32;99231.77;224063;1240;139996;-65
2022/10/08 17:51:31;;;;;;;15.10;9.00;;;;;;;19.27;57.40;99236.77;224123;1247;139769;-65
2022/10/08 17:56:34;;;;;;;13.80;8.90;;;;;;;19.31;57.43;99238.26;223606;1246;139429;-64
2022/10/08 18:01:37;;;;;;;13.80;8.90;;;;;;;19.32;57.47;99248.74;223559;1254;139795;-64
2022/10/08 18:06:47;;;;;;;15.40;9.60;;;;;;;19.27;57.49;99253.14;223574;1250;139882;-65
2022/10/08 18:11:52;;;;;;;13.90;9.60;;;;;;;19.20;57.49;99256.20;223558;1253;139795;-65
2022/10/08 18:16:56;;;;;;;15.00;9.50;;;;;;;19.14;57.69;99263.21;223631;1249;139391;-65
2022/10/08 18:21:59;;;;;;;15.50;10.60;;;;;;;19.06;57.62;99261.25;223464;1248;140513;-65
2022/10/08 18:27:05;;;;;;;17.30;11.40;;;;;;;18.96;57.85;99262.58;223540;1249;140110;-64
2022/10/08 18:32:08;;;;;;;20.60;11.70;;;;;;;18.84;58.02;99264.74;224061;1239;140232;-65
2022/10/08 18:37:11;;;;;;;17.50;11.60;;;;;;;18.74;58.21;99270.87;223544;1254;141023;-70
2022/10/08 18:42:14;;;;;;;20.30;11.30;;;;;;;18.65;58.44;99271.09;223598;1249;139567;-68
2022/10/08 18:47:16;;;;;;;16.40;11.60;;;;;;;18.62;58.52;99272.15;224143;1239;141106;-69
2022/10/08 18:52:25;;;;;;;16.80;12.40;;;;;;;18.61;58.87;99270.44;223604;1254;140612;-66
2022/10/08 18:57:29;;;;;;;18.20;12.80;;;;;;;18.56;59.07;99268.95;223677;1247;140225;-68
2022/10/08 19:02:32;;;;;;;19.00;14.00;;;;;;;18.49;59.23;99277.15;223558;1261;140347;-65
2022/10/08 19:07:35;;;;;;;21.60;14.10;;;;;;;18.39;59.36;99281.98;224054;1244;139586;-64
2022/10/08 19:12:38;;;;;;;20.60;14.60;;;;;;;18.32;59.52;99292.89;224161;1247;140173;-69
2022/10/08 19:17:41;;;;;;;21.60;14.10;;;;;;;18.24;59.69;99300.21;223725;1254;139710;-64
2022/10/08 19:22:44;;;;;;;18.10;13.10;;;;;;;18.21;59.67;99309.48;223537;1254;140848;-66
2022/10/08 19:27:47;;;;;;;22.70;14.00;;;;;;;18.21;59.92;99309.48;224064;1239;140675;-68
2022/10/08 19:32:51;;;;;;;20.40;13.90;;;;;;;18.18;60.10;99318.92;224104;1247;139671;-67
2022/10/08 19:37:53;;;;;;;24.30;14.50;;;;;;;18.15;60.33;99326.19;223482;1248;140249;-67
2022/10/08 19:42:56;;;;;;;23.50;15.50;;;;;;;18.11;60.37;99327.28;224114;1247;139832;-67
2022/10/08 19:47:59;;;;;;;21.10;13.70;;;;;;;18.05;60.25;99328.70;223560;1251;139916;-66
2022/10/08 19:53:03;;;;;;;17.00;13.70;;;;;;;17.99;60.39;99336.41;223640;1246;140263;-65
2022/10/08 19:58:06;;;;;;;19.40;13.80;;;;;;;17.93;60.54;99346.04;223598;1254;140592;-67
2022/10/08 20:03:09;;;;;;;21.40;13.80;;;;;;;17.93;60.69;99351.24;224056;1247;141435;-66
2022/10/08 20:08:12;;;;;;;20.20;13.10;;;;;;;17.98;60.90;99353.50;224039;1247;139869;-64
2022/10/08 20:13:15;;;;;;;22.50;13.70;;;;;;;18.00;60.99;99358.92;223516;1253;139314;-68
2022/10/08 20:18:17;;;;;;;30.20;16.70;;;;;;;18.01;61.02;99370.88;223533;1254;140617;-66
2022/10/08 20:23:21;;;;;;;20.80;14.60;;;;;;;17.99;61.04;99371.92;223657;1254;140133;-66
2022/10/08 20:28:23;;;;;;;20.90;14.30;;;;;;;17.98;61.03;99377.96;223589;1246;141190;-69
2022/10/08 20:33:26;;;;;;;69.30;52.60;;;;;;;17.94;61.23;99381.70;223508;1254;139640;-65
2022/10/08 20:38:29;;;;;;;23.70;16.60;;;;;;;18.04;61.80;99388.35;223623;1254;139838;-65
2022/10/08 20:43:35;;;;;;;21.50;14.50;;;;;;;18.19;61.62;99393.67;223478;1246;141450;-69
2022/10/08 20:48:40;;;;;;;22.30;14.00;;;;;;;18.21;61.20;99390.44;224073;1239;140012;-62
2022/10/08 20:53:48;;;;;;;38.70;27.90;;;;;;;18.16;61.15;99396.77;224255;1247;140874;-64
2022/10/08 20:58:51;;;;;;;22.30;15.80;;;;;;;18.13;61.21;99404.50;223520;1253;141295;-64
2022/10/08 21:03:55;;;;;;;21.40;15.80;;;;;;;18.08;61.17;99409.58;223379;1256;139451;-64
2022/10/08 21:08:58;;;;;;;24.50;15.40;;;;;;;18.01;61.02;99418.79;224079;1247;140676;-64
2022/10/08 21:14:02;;;;;;;22.80;15.90;;;;;;;17.95;61.28;99422.56;224122;1247;140065;-62
2022/10/08 21:19:11;;;;;;;22.30;16.00;;;;;;;17.93;61.40;99420.19;223621;1252;139604;-63
2022/10/08 21:24:14;;;;;;;21.10;15.40;;;;;;;17.92;61.40;99420.31;224112;1243;139944;-63
2022/10/08 21:29:17;;;;;;;24.80;16.40;;;;;;;17.95;61.51;99422.95;224198;1248;140880;-62
2022/10/08 21:34:20;;;;;;;25.30;18.10;;;;;;;17.98;61.53;99426.82;223459;1255;140019;-62
2022/10/08 21:39:23;;;;;;;25.20;17.80;;;;;;;17.98;61.51;99428.26;223501;1257;140100;-62
2022/10/08 21:44:26;;;;;;;24.10;17.00;;;;;;;17.95;61.74;99421.60;223574;1254;140654;-62
2022/10/08 21:49:29;;;;;;;26.40;17.20;;;;;;;17.92;61.50;99425.11;223641;1254;140995;-62
2022/10/08 21:54:32;;;;;;;26.30;18.60;;;;;;;17.89;61.62;99431.15;224190;1247;140016;-65
2022/10/08 21:59:35;;;;;;;26.80;18.90;;;;;;;17.86;61.64;99430.71;223622;1248;140266;-63
2022/10/08 22:04:38;;;;;;;27.70;17.70;;;;;;;17.81;61.70;99429.88;223453;1248;139777;-65
2022/10/08 22:09:41;;;;;;;26.40;17.90;;;;;;;17.80;61.69;99431.79;223499;1250;141568;-64
2022/10/08 22:14:44;;;;;;;25.80;18.40;;;;;;;17.81;61.86;99442.95;223595;1255;141163;-66
2022/10/08 22:19:47;;;;;;;30.20;20.10;;;;;;;17.83;62.00;99446.23;223613;1254;139609;-67
2022/10/08 22:24:52;;;;;;;29.10;20.10;;;;;;;17.80;61.93;99452.41;224103;1240;139439;-65
2022/10/08 22:29:56;;;;;;;28.80;20.20;;;;;;;17.69;61.80;99464.19;223554;1247;140711;-64
2022/10/08 22:34:59;;;;;;;27.90;20.30;;;;;;;17.62;62.02;99461.41;223674;1247;140018;-65
2022/10/08 22:40:02;;;;;;;28.50;19.90;;;;;;;17.55;62.05;99463.23;223510;1254;139924;-64
2022/10/08 22:45:06;;;;;;;29.80;19.80;;;;;;;17.53;62.14;99466.67;224166;1247;140864;-62
2022/10/08 22:50:09;;;;;;;30.90;20.70;;;;;;;17.54;62.41;99472.48;223624;1251;140004;-62
2022/10/08 22:55:13;;;;;;;26.90;21.20;;;;;;;17.55;62.51;99477.44;223668;1246;139822;-63
2022/10/08 23:00:16;;;;;;;25.20;19.30;;;;;;;17.54;62.35;99480.98;224202;1247;140472;-70
2022/10/08 23:05:19;;;;;;;27.00;20.00;;;;;;;17.48;62.39;99486.83;223711;1240;140138;-68
2022/10/08 23:10:22;;;;;;;27.90;19.50;;;;;;;17.41;62.33;99481.33;223701;1246;139518;-68